Time;durP1;ratioP1;P1;durP2;ratioP2;P2;SDS_P1;SDS_P2;PMS_P1;PMS_P2;Temp;Humidity;BMP_temperature;BMP_pressure;BME280_temperature;BME280_humidity;BME280_pressure;Samples;Min_cycle;Max_cycle;Signal;HPM_P1;HPM_P2
2023/01/23 00:01:48;;;;;;;22.33;6.43;;;;;;;;;;4903696;29;20090;-78
2023/01/23 00:04:15;;;;;;;25.65;7.35;;;;;;;;;;4918838;29;20098;-78
2023/01/23 00:06:41;;;;;;;23.15;6.10;;;;;;;;;;4918332;29;20051;-78
2023/01/23 00:09:07;;;;;;;23.88;6.25;;;;;;;;;;4902466;29;20044;-78
2023/01/23 00:11:33;;;;;;;15.98;5.82;;;;;;;;;;4901410;29;20465;-78
2023/01/23 00:14:00;;;;;;;19.63;6.25;;;3.50;99.90;;;;;;4900329;29;20047;-78
2023/01/23 00:16:28;;;;;;;20.05;6.18;;;;;;;;;;4886540;29;20040;-78
2023/01/23 00:18:54;;;;;;;22.00;6.15;;;;;;;;;;4918855;29;20040;-78
2023/01/23 00:21:22;;;;;;;19.95;6.75;;;;;;;;;;4910486;29;20040;-78
2023/01/23 00:23:50;;;;;;;21.70;6.00;;;;;;;;;;4884685;29;20051;-78
2023/01/23 00:26:24;;;;;;;21.67;6.30;;;3.50;99.90;;;;;;4900510;29;20071;-78
2023/01/23 00:28:50;;;;;;;16.90;6.10;;;;;;;;;;4899780;29;20075;-78
2023/01/23 00:31:20;;;;;;;23.67;6.65;;;;;;;;;;4903617;29;20079;-77
2023/01/23 00:33:46;;;;;;;22.73;5.50;;;;;;;;;;4903679;29;20051;-78
2023/01/23 00:36:14;;;;;;;19.05;6.07;;;3.40;99.90;;;;;;4902927;29;20048;-77
2023/01/23 00:38:40;;;;;;;15.23;5.65;;;3.60;99.90;;;;;;4911714;29;20048;-78
2023/01/23 00:41:06;;;;;;;17.92;6.53;;;;;;;;;;4917541;29;20040;-78
2023/01/23 00:43:32;;;;;;;13.85;5.65;;;;;;;;;;4918406;29;20050;-78
2023/01/23 00:45:59;;;;;;;16.25;6.25;;;;;;;;;;4918385;29;20500;-78
2023/01/23 00:48:25;;;;;;;32.05;7.18;;;;;;;;;;4917831;29;20043;-78
2023/01/23 00:50:51;;;;;;;20.98;5.72;;;;;;;;;;4918320;29;20051;-78
2023/01/23 00:53:17;;;;;;;18.65;6.78;;;;;;;;;;4917732;29;20455;-78
2023/01/23 00:55:43;;;;;;;24.25;5.90;;;;;;;;;;4915810;29;20039;-78
2023/01/23 00:58:09;;;;;;;22.30;7.40;;;;;;;;;;4910653;29;20040;-78
2023/01/23 01:00:36;;;;;;;25.98;7.55;;;;;;;;;;4901310;29;20127;-78
2023/01/23 01:03:02;;;;;;;17.98;6.70;;;;;;;;;;4899735;29;20054;-78
2023/01/23 01:05:28;;;;;;;23.90;6.95;;;;;;;;;;4907788;29;20040;-78
2023/01/23 01:07:54;;;;;;;18.63;6.75;;;;;;;;;;4901022;29;20047;-78
2023/01/23 01:10:20;;;;;;;21.10;6.53;;;;;;;;;;4899187;29;20040;-78
2023/01/23 01:12:46;;;;;;;19.40;6.35;;;;;;;;;;4917648;29;20090;-78
2023/01/23 01:15:13;;;;;;;14.57;6.45;;;;;;;;;;4916809;29;20118;-78
2023/01/23 01:17:39;;;;;;;29.73;6.65;;;;;;;;;;4916713;29;20035;-78
2023/01/23 01:20:05;;;;;;;30.30;7.25;;;;;;;;;;4911101;29;20039;-78
2023/01/23 01:22:31;;;;;;;24.55;7.80;;;;;;;;;;4916066;29;20091;-78
2023/01/23 01:24:57;;;;;;;23.33;7.88;;;;;;;;;;4902605;29;20518;-78
2023/01/23 01:27:24;;;;;;;25.20;8.32;;;;;;;;;;4920026;29;20047;-78
2023/01/23 01:29:50;;;;;;;23.30;7.85;;;;;;;;;;4881458;29;1126376;-78
2023/01/23 01:32:16;;;;;;;20.73;8.02;;;;;;;;;;4903345;29;20048;-78
2023/01/23 01:34:42;;;;;;;22.30;7.80;;;;;;;;;;4902960;29;20044;-78
2023/01/23 01:37:08;;;;;;;22.05;8.27;;;;;;;;;;4896527;29;20508;-78
2023/01/23 01:39:34;;;;;;;20.98;7.80;;;;;;;;;;4927787;29;20067;-78
2023/01/23 01:42:00;;;;;;;31.65;9.07;;;;;;;;;;4921587;29;20032;-78
2023/01/23 01:44:26;;;;;;;21.20;8.25;;;;;;;;;;4909185;29;20039;-78
2023/01/23 01:46:53;;;;;;;25.33;8.45;;;;;;;;;;4896946;29;20552;-78
2023/01/23 01:49:32;;;;;;;28.90;9.30;;;3.30;99.90;;;;;;4905324;29;20040;-78
2023/01/23 01:52:07;;;;;;;23.75;8.40;;;3.40;99.90;;;;;;4920926;29;20044;-78
2023/01/23 01:54:40;;;;;;;27.60;8.88;;;;;;;;;;4919673;29;20432;-78
2023/01/23 01:57:06;;;;;;;;;;;;;;;;;;4915597;29;20557;-78
2023/01/23 01:59:54;;;;;;;27.35;8.95;;;3.20;99.90;;;;;;4911994;29;19922;-78
2023/01/23 02:02:42;;;;;;;24.02;8.48;;;3.50;99.90;;;;;;4928762;29;20040;-78
2023/01/23 02:05:18;;;;;;;25.63;9.55;;;3.30;99.90;;;;;;4913568;29;20047;-78
2023/01/23 02:07:44;;;;;;;28.75;9.25;;;;;;;;;;4903544;29;20114;-78
2023/01/23 02:10:11;;;;;;;33.88;10.88;;;;;;;;;;4913944;29;20431;-78
2023/01/23 02:12:37;;;;;;;29.23;9.75;;;;;;;;;;4903222;29;20039;-78
2023/01/23 02:15:06;;;;;;;24.98;10.40;;;3.40;99.90;;;;;;4910942;29;20507;-78
2023/01/23 02:17:33;;;;;;;33.42;9.75;;;;;;;;;;4920920;29;20098;-78
2023/01/23 02:20:07;;;;;;;21.73;9.82;;;;;;;;;;4920946;29;20059;-78
2023/01/23 02:22:49;;;;;;;27.08;9.95;;;;;;;;;;4916205;29;20035;-78
2023/01/23 02:25:18;;;;;;;24.65;9.85;;;;;;;;;;4935935;29;20036;-78
2023/01/23 02:27:44;;;;;;;26.17;11.02;;;;;;;;;;4934167;29;20044;-78
2023/01/23 02:30:11;;;;;;;24.27;9.95;;;;;;;;;;4936335;29;20043;-78
2023/01/23 02:32:37;;;;;;;21.35;9.30;;;;;;;;;;4912491;29;20050;-78
2023/01/23 02:35:11;;;;;;;30.65;9.65;;;;;;;;;;4917955;29;20031;-78
2023/01/23 02:37:40;;;;;;;17.75;8.80;;;;;;;;;;4918539;29;20039;-78
2023/01/23 02:40:06;;;;;;;29.27;8.85;;;;;;;;;;4921015;29;20040;-78
2023/01/23 02:42:33;;;;;;;19.95;9.60;;;;;;;;;;4920652;29;20039;-78
2023/01/23 02:44:59;;;;;;;21.42;9.48;;;;;;;;;;4920345;29;20071;-78
2023/01/23 02:47:25;;;;;;;25.27;9.95;;;;;;;;;;4917605;29;20094;-77
2023/01/23 02:49:51;;;;;;;26.50;9.10;;;;;;;;;;4912800;29;20074;-78
2023/01/23 02:52:17;;;;;;;22.73;9.82;;;;;;;;;;4911269;29;20507;-78
2023/01/23 02:54:43;;;;;;;25.25;9.23;;;;;;;;;;4886438;29;20488;-78
2023/01/23 02:57:09;;;;;;;22.52;8.93;;;;;;;;;;4917582;29;20035;-78
2023/01/23 03:02:20;;;;;;;26.50;8.95;;;;;;;;;;4917508;29;20455;-78
2023/01/23 03:04:46;;;;;;;19.75;8.23;;;;;;;;;;4911150;29;20047;-78
2023/01/23 03:07:12;;;;;;;21.05;8.60;;;;;;;;;;4901700;29;20083;-78
2023/01/23 03:09:42;;;;;;;19.38;8.30;;;;;;;;;;4931345;29;20503;-78
2023/01/23 03:12:09;;;;;;;21.10;8.52;;;;;;;;;;4920862;29;20059;-78
2023/01/23 03:14:35;;;;;;;16.67;8.07;;;;;;;;;;4904293;29;20039;-78
2023/01/23 03:17:01;;;;;;;18.98;7.88;;;;;;;;;;4920294;29;20046;-78
2023/01/23 03:19:27;;;;;;;21.48;8.52;;;;;;;;;;4915737;29;20040;-78
2023/01/23 03:21:54;;;;;;;20.35;8.35;;;;;;;;;;4903560;29;20064;-78
2023/01/23 03:24:20;;;;;;;26.13;8.80;;;;;;;;;;4908487;29;20067;-78
2023/01/23 03:26:47;;;;;;;18.77;8.30;;;;;;;;;;4910412;29;20044;-78
2023/01/23 03:32:01;;;;;;;19.27;8.40;;;;;;;;;;4921176;29;20043;-78
2023/01/23 03:34:28;;;;;;;24.42;8.50;;;;;;;;;;4904642;29;20044;-78
2023/01/23 03:36:54;;;;;;;27.80;8.55;;;;;;;;;;4919849;29;20066;-78
2023/01/23 03:42:05;;;;;;;19.25;8.25;;;;;;;;;;4891075;29;20040;-78
2023/01/23 03:44:31;;;;;;;21.23;8.57;;;;;;;;;;4885212;29;20052;-78
2023/01/23 03:46:57;;;;;;;20.20;8.52;;;;;;;;;;4884917;29;20047;-78
2023/01/23 03:49:26;;;;;;;19.95;9.07;;;;;;;;;;4870829;29;20055;-78
2023/01/23 03:51:52;;;;;;;26.45;9.27;;;;;;;;;;4900672;29;20055;-78
2023/01/23 03:54:18;;;;;;;19.75;7.90;;;;;;;;;;4900787;29;20084;-78
2023/01/23 03:56:44;;;;;;;20.15;9.88;;;;;;;;;;4899448;29;20047;-78
2023/01/23 03:59:10;;;;;;;21.00;8.20;;;;;;;;;;4919742;29;20040;-78
2023/01/23 04:01:36;;;;;;;22.35;9.35;;;;;;;;;;4903515;29;20044;-78
2023/01/23 04:04:03;;;;;;;25.30;8.00;;;;;;;;;;4919325;29;20086;-78
2023/01/23 04:06:29;;;;;;;20.35;8.48;;;;;;;;;;4901497;29;20103;-78
2023/01/23 04:08:57;;;;;;;21.42;7.88;;;;;;;;;;4888136;29;20054;-78
2023/01/23 04:11:23;;;;;;;24.67;8.27;;;;;;;;;;4879207;29;20099;-78
2023/01/23 04:13:50;;;;;;;22.33;8.80;;;;;;;;;;4900496;29;20094;-78
2023/01/23 04:16:16;;;;;;;25.88;8.52;;;;;;;;;;4891915;29;20387;-78
2023/01/23 04:18:42;;;;;;;23.35;8.20;;;;;;;;;;4919416;29;20044;-78
2023/01/23 04:21:08;;;;;;;20.83;7.90;;;;;;;;;;4903340;29;20062;-79
2023/01/23 04:23:34;;;;;;;21.25;8.65;;;;;;;;;;4919496;29;20079;-78
2023/01/23 04:26:00;;;;;;;17.77;8.07;;;;;;;;;;4899011;29;20463;-78
2023/01/23 04:28:26;;;;;;;16.13;7.72;;;;;;;;;;4884617;29;20124;-78
2023/01/23 04:30:53;;;;;;;23.15;8.73;;;;;;;;;;4900217;29;20122;-78
2023/01/23 04:33:19;;;;;;;21.98;8.98;;;;;;;;;;4886469;29;20055;-78
2023/01/23 04:36:05;;;;;;;22.55;8.93;;;;;;;;;;4914461;29;20028;-78
2023/01/23 04:38:31;;;;;;;20.88;9.10;;;;;;;;;;4908325;29;20441;-78
2023/01/23 04:41:00;;;;;;;21.80;8.05;;;;;;;;;;4918679;29;20081;-78
2023/01/23 04:43:26;;;;;;;18.77;8.32;;;;;;;;;;4888196;29;20044;-78
2023/01/23 04:45:52;;;;;;;20.80;8.02;;;;;;;;;;4913330;29;20052;-78
2023/01/23 04:48:19;;;;;;;19.67;9.07;;;;;;;;;;4905698;29;20504;-78
2023/01/23 04:50:45;;;;;;;21.38;7.75;;;;;;;;;;4919363;29;20054;-78
2023/01/23 04:53:12;;;;;;;26.48;8.55;;;;;;;;;;4907051;29;20099;-78
2023/01/23 04:55:38;;;;;;;18.98;7.65;;;;;;;;;;4922575;29;20058;-78
2023/01/23 04:58:05;;;;;;;29.15;8.70;;;;;;;;;;4922508;29;20058;-78
2023/01/23 05:00:31;;;;;;;22.98;8.68;;;;;;;;;;4906799;29;20047;-78
2023/01/23 05:03:01;;;;;;;21.38;8.38;;;;;;;;;;4906862;29;20127;-78
2023/01/23 05:05:27;;;;;;;17.02;7.82;;;;;;;;;;4920651;29;20063;-78
2023/01/23 05:07:53;;;;;;;18.15;9.15;;;;;;;;;;4916596;29;20047;-78
2023/01/23 05:10:19;;;;;;;26.60;9.20;;;;;;;;;;4922385;29;20055;-78
2023/01/23 05:12:45;;;;;;;23.67;9.40;;;;;;;;;;4894817;29;20222;-78
2023/01/23 05:15:12;;;;;;;26.27;8.85;;;;;;;;;;4903384;29;20043;-78
2023/01/23 05:17:38;;;;;;;24.42;8.18;;;;;;;;;;4903382;29;20092;-78
2023/01/23 05:20:04;;;;;;;23.70;8.52;;;;;;;;;;4887791;29;20040;-78
2023/01/23 05:22:31;;;;;;;16.35;8.68;;;;;;;;;;4903217;29;20122;-78
2023/01/23 05:24:59;;;;;;;25.88;9.45;;;;;;;;;;4903577;29;20050;-78
2023/01/23 05:27:25;;;;;;;24.52;8.65;;;;;;;;;;4902920;29;20048;-78
2023/01/23 05:29:51;;;;;;;26.65;8.85;;;;;;;;;;4887691;29;20058;-75
2023/01/23 05:32:17;;;;;;;22.83;8.45;;;;;;;;;;4887485;29;20503;-76
2023/01/23 05:34:43;;;;;;;22.85;8.90;;;;;;;;;;4908318;29;20127;-78
2023/01/23 05:37:10;;;;;;;21.67;8.88;;;;;;;;;;4905909;29;20036;-78
2023/01/23 05:39:36;;;;;;;20.30;8.40;;;;;;;;;;4916425;29;20389;-78
2023/01/23 05:42:02;;;;;;;21.58;8.75;;;;;;;;;;4917335;29;20043;-78
2023/01/23 05:44:29;;;;;;;21.67;9.98;;;;;;;;;;4895832;29;20067;-78
2023/01/23 05:46:55;;;;;;;19.20;8.73;;;;;;;;;;4904743;29;20091;-78
2023/01/23 05:49:21;;;;;;;25.95;9.40;;;;;;;;;;4901413;29;20163;-78
2023/01/23 05:51:47;;;;;;;23.88;9.60;;;;;;;;;;4921583;29;20044;-77
2023/01/23 05:54:13;;;;;;;24.55;9.98;;;;;;;;;;4921649;29;20079;-77
2023/01/23 05:56:39;;;;;;;25.48;11.30;;;;;;;;;;4905831;29;20488;-78
2023/01/23 05:59:05;;;;;;;24.98;11.13;;;;;;;;;;4922070;29;20075;-78
2023/01/23 06:01:31;;;;;;;23.48;10.10;;;;;;;;;;4921266;29;20091;-78
2023/01/23 06:03:58;;;;;;;20.77;10.05;;;;;;;;;;4890595;29;20051;-77
2023/01/23 06:06:24;;;;;;;23.27;11.13;;;;;;;;;;4921526;29;20074;-77
2023/01/23 06:08:50;;;;;;;23.90;11.02;;;;;;;;;;4921770;29;20055;-77
2023/01/23 06:11:16;;;;;;;28.27;10.45;;;;;;;;;;4921478;29;20040;-77
2023/01/23 06:13:42;;;;;;;29.20;11.00;;;;;;;;;;4925199;29;20044;-77
2023/01/23 06:16:08;;;;;;;25.52;10.90;;;;;;;;;;4925516;29;20118;-78
2023/01/23 06:18:34;;;;;;;28.60;10.80;;;;;;;;;;4916818;29;20043;-77
2023/01/23 06:21:00;;;;;;;29.25;11.13;;;;;;;;;;4924372;29;20098;-77
2023/01/23 06:23:27;;;;;;;28.70;12.40;;;;;;;;;;4923551;29;20111;-78
2023/01/23 06:25:53;;;;;;;26.98;10.98;;;;;;;;;;4903645;29;20400;-77
2023/01/23 06:28:19;;;;;;;28.85;12.48;;;;;;;;;;4920644;29;20540;-77
2023/01/23 06:30:45;;;;;;;28.25;11.98;;;;;;;;;;4914921;29;20078;-77
2023/01/23 06:33:11;;;;;;;29.15;12.60;;;;;;;;;;4920763;29;20050;-77
2023/01/23 06:35:37;;;;;;;26.77;12.20;;;;;;;;;;4920535;29;20043;-77
2023/01/23 06:38:03;;;;;;;25.80;12.40;;;;;;;;;;4897108;29;20040;-77
2023/01/23 06:40:29;;;;;;;29.65;12.80;;;;;;;;;;4899412;29;20095;-77
2023/01/23 06:42:55;;;;;;;27.50;12.40;;;;;;;;;;4914274;29;20047;-77
2023/01/23 06:45:21;;;;;;;31.02;12.25;;;;;;;;;;4911260;29;20051;-76
2023/01/23 06:47:47;;;;;;;27.92;12.48;;;;;;;;;;4908870;29;20035;-77
2023/01/23 06:50:14;;;;;;;26.70;13.25;;;;;;;;;;4909141;29;20039;-77
2023/01/23 06:52:40;;;;;;;31.17;13.70;;;;;;;;;;4917523;29;20058;-77
2023/01/23 06:55:06;;;;;;;30.15;13.32;;;;;;;;;;4919154;29;20055;-77
2023/01/23 06:57:33;;;;;;;30.35;14.65;;;;;;;;;;4900134;29;20127;-77
2023/01/23 06:59:59;;;;;;;26.75;12.25;;;;;;;;;;4891949;29;20044;-77
2023/01/23 07:02:25;;;;;;;31.48;13.52;;;;;;;;;;4917607;29;20078;-77
2023/01/23 07:04:51;;;;;;;30.38;12.93;;;;;;;;;;4915619;29;20385;-77
2023/01/23 07:07:17;;;;;;;34.30;13.07;;;;;;;;;;4902374;29;20064;-78
2023/01/23 07:09:44;;;;;;;30.45;13.20;;;;;;;;;;4905978;29;20044;-77
2023/01/23 07:12:10;;;;;;;32.80;13.93;;;;;;;;;;4908944;29;20051;-77
2023/01/23 07:14:36;;;;;;;29.38;12.52;;;;;;;;;;4914063;29;20048;-77
2023/01/23 07:17:02;;;;;;;33.15;13.77;;;;;;;;;;4909145;29;20147;-78
2023/01/23 07:19:28;;;;;;;31.73;13.32;;;;;;;;;;4908786;29;20123;-77
2023/01/23 07:21:54;;;;;;;28.25;12.80;;;;;;;;;;4887031;29;20047;-77
2023/01/23 07:24:20;;;;;;;34.53;13.82;;;;;;;;;;4893305;29;20502;-77
2023/01/23 07:26:46;;;;;;;34.83;13.45;;;;;;;;;;4915221;29;20400;-77
2023/01/23 07:29:13;;;;;;;39.50;14.75;;;;;;;;;;4900515;29;20078;-77
2023/01/23 07:31:39;;;;;;;33.47;14.77;;;;;;;;;;4916500;29;20051;-77
2023/01/23 07:34:05;;;;;;;34.00;14.32;;;;;;;;;;4906881;29;20042;-77
2023/01/23 07:36:31;;;;;;;27.98;14.27;;;;;;;;;;4906776;29;20036;-77
2023/01/23 07:38:57;;;;;;;25.77;11.73;;;;;;;;;;4903239;29;20048;-77
2023/01/23 07:41:24;;;;;;;35.78;14.70;;;;;;;;;;4917708;29;20042;-76
2023/01/23 07:43:50;;;;;;;35.55;15.10;;;;;;;;;;4905300;29;20062;-76
2023/01/23 07:46:16;;;;;;;40.53;14.85;;;;;;;;;;4901920;29;20036;-76
2023/01/23 07:48:42;;;;;;;33.33;13.98;;;;;;;;;;4916446;29;20123;-76
2023/01/23 07:51:08;;;;;;;40.28;14.10;;;;;;;;;;4898286;29;20040;-77
2023/01/23 07:53:35;;;;;;;32.90;14.63;;;;;;;;;;4914147;29;20040;-77
2023/01/23 07:56:05;;;;;;;33.80;13.80;;;;;;;;;;4900696;29;20047;-76
2023/01/23 07:58:31;;;;;;;37.58;15.10;;;;;;;;;;4908104;29;20040;-77
2023/01/23 08:00:57;;;;;;;36.65;15.75;;;;;;;;;;4897789;29;20047;-73
2023/01/23 08:03:26;;;;;;;31.75;14.93;;;;;;;;;;4900306;29;20052;-73
2023/01/23 08:05:52;;;;;;;35.47;13.98;;;;;;;;;;4891393;29;20095;-72
2023/01/23 08:08:18;;;;;;;38.83;14.38;;;;;;;;;;4914910;29;20040;-72
2023/01/23 08:10:45;;;;;;;39.03;14.95;;;;;;;;;;4893529;29;20044;-73
2023/01/23 08:13:11;;;;;;;31.75;14.07;;;;;;;;;;4909374;29;20051;-72
2023/01/23 08:15:37;;;;;;;36.15;14.95;;;;;;;;;;4911983;29;20042;-72
2023/01/23 08:18:04;;;;;;;35.15;15.00;;;;;;;;;;4917152;29;20048;-73
2023/01/23 08:20:30;;;;;;;39.65;16.00;;;;;;;;;;4911717;29;20036;-72
2023/01/23 08:22:57;;;;;;;34.70;15.27;;;;;;;;;;4892134;29;20035;-73
2023/01/23 08:25:23;;;;;;;39.45;16.60;;;;;;;;;;4895549;29;20575;-72
2023/01/23 08:27:50;;;;;;;33.38;14.75;;;;;;;;;;4889533;29;20052;-72
2023/01/23 08:30:16;;;;;;;37.47;14.98;;;;;;;;;;4908170;29;20040;-73
2023/01/23 08:32:42;;;;;;;43.53;16.25;;;;;;;;;;4900709;29;20115;-72
2023/01/23 08:35:08;;;;;;;37.05;14.70;;;;;;;;;;4885543;29;20135;-73
2023/01/23 08:37:35;;;;;;;30.98;14.20;;;;;;;;;;4915689;29;20042;-73
2023/01/23 08:40:01;;;;;;;36.63;15.10;;;;;;;;;;4918151;29;20051;-73
2023/01/23 08:42:28;;;;;;;38.38;15.23;;;;;;;;;;4916628;29;20071;-73
2023/01/23 08:44:54;;;;;;;32.50;14.27;;;;;;;;;;4914916;29;20380;-73
2023/01/23 08:47:20;;;;;;;37.67;14.88;;;;;;;;;;4916030;29;20040;-73
2023/01/23 08:49:46;;;;;;;33.20;14.57;;;;;;;;;;4914843;29;20046;-73
2023/01/23 08:52:13;;;;;;;29.75;14.30;;;;;;;;;;4891840;29;20044;-73
2023/01/23 08:54:39;;;;;;;32.40;13.48;;;;;;;;;;4914867;29;20082;-73
2023/01/23 08:57:05;;;;;;;39.17;14.40;;;;;;;;;;4917174;29;20163;-73
2023/01/23 08:59:31;;;;;;;35.88;14.65;;;;;;;;;;4914078;29;20078;-73
2023/01/23 09:01:57;;;;;;;34.33;14.55;;;;;;;;;;4914998;29;20044;-73
2023/01/23 09:04:23;;;;;;;38.55;15.30;;;;;;;;;;4908791;29;20055;-73
2023/01/23 09:06:49;;;;;;;35.03;14.68;;;;;;;;;;4896934;29;20519;-72
2023/01/23 09:09:16;;;;;;;32.88;14.82;;;;;;;;;;4903116;29;20495;-72
2023/01/23 09:11:44;;;;;;;37.97;14.93;;;;;;;;;;4929315;29;20058;-73
2023/01/23 09:14:10;;;;;;;36.15;15.30;;;;;;;;;;4937365;29;20055;-73
2023/01/23 09:16:38;;;;;;;39.55;15.60;;;;;;;;;;4937650;29;20039;-72
2023/01/23 09:19:04;;;;;;;37.92;15.93;;;;;;;;;;4954598;29;20058;-73
2023/01/23 09:21:30;;;;;;;38.08;15.65;;;;;;;;;;4937284;29;20047;-73
2023/01/23 09:23:56;;;;;;;47.38;16.95;;;;;;;;;;4921422;29;20102;-73
2023/01/23 09:26:22;;;;;;;36.90;15.15;;;;;;;;;;4936097;29;20511;-73
2023/01/23 09:28:48;;;;;;;36.25;14.43;;;;;;;;;;4921448;29;20071;-73
2023/01/23 09:31:14;;;;;;;41.60;14.70;;;;;;;;;;4937767;29;20120;-73
2023/01/23 09:33:41;;;;;;;41.17;16.20;;;;;;;;;;4921638;29;20050;-73
2023/01/23 09:36:07;;;;;;;39.90;15.57;;;;;;;;;;4937709;28;20051;-73
2023/01/23 09:38:33;;;;;;;36.17;16.38;;;;;;;;;;4924313;29;20079;-73
2023/01/23 09:41:00;;;;;;;45.83;16.05;;;;;;;;;;4940908;29;20039;-73
2023/01/23 09:43:52;;;;;;;45.80;16.45;;;3.60;99.90;;;;;;4940634;29;20091;-73
2023/01/23 09:46:25;;;;;;;38.93;15.33;;;3.40;99.90;;;;;;4940524;29;20046;-73
2023/01/23 09:49:11;;;;;;;42.60;15.25;;;;;;;;;;4940951;29;20082;-73
2023/01/23 09:51:37;;;;;;;38.47;13.95;;;;;;;;;;4930679;29;20065;-73
2023/01/23 09:54:29;;;;;;;36.28;15.52;;;;;;;;;;4924402;29;20407;-73
2023/01/23 09:56:59;;;;;;;42.00;13.45;;;3.60;99.90;;;;;;4915067;29;20078;-74
2023/01/23 09:59:25;;;;;;;36.65;14.82;;;;;;;;;;4940520;29;20035;-73
2023/01/23 10:01:51;;;;;;;40.15;14.50;;;;;;;;;;4940413;29;20050;-73
2023/01/23 10:04:17;;;;;;;38.13;13.98;;;;;;;;;;4940164;29;20047;-78
2023/01/23 10:07:05;;;;;;;36.80;14.40;;;3.60;99.90;;;;;;4941330;29;20852;-77
2023/01/23 10:09:51;;;;;;;35.10;14.07;;;3.70;99.90;;;;;;4925527;29;20039;-77
2023/01/23 10:12:17;;;;;;;31.83;15.23;;;;;;;;;;4925199;29;20043;-77
2023/01/23 10:14:58;;;;;;;34.78;13.55;;;;;;;;;;4940648;29;20048;-77
2023/01/23 10:18:06;;;;;;;34.08;13.85;;;3.80;99.90;;;;;;4940694;29;20035;-78
2023/01/23 10:20:38;;;;;;;30.75;13.30;;;;;;;;;;4932959;29;20079;-77
2023/01/23 10:23:04;;;;;;;33.92;13.52;;;;;;;;;;4924686;29;20043;-78
2023/01/23 10:25:33;;;;;;;28.83;12.45;;;;;;;;;;4924513;29;20046;-78
2023/01/23 10:28:37;;;;;;;24.88;12.50;;;3.90;99.90;;;;;;4932975;29;20066;-78
2023/01/23 10:31:16;;;;;;;29.83;11.18;;;;;;;;;;4938853;29;20134;-77
2023/01/23 10:33:50;;;;;;;22.58;10.90;;;;;;;;;;4940446;29;20113;-78
2023/01/23 10:36:34;;;;;;;27.75;11.35;;;3.90;99.90;;;;;;4901866;29;20412;-78
2023/01/23 10:39:04;;;;;;;22.10;10.48;;;3.90;99.90;;;;;;4919832;29;20044;-78
2023/01/23 10:41:31;;;;;;;21.83;10.82;;;;;;;;;;4921615;29;20555;-78
2023/01/23 10:43:59;;;;;;;27.88;11.57;;;3.90;99.90;;;;;;4905919;29;20083;-78
2023/01/23 10:46:36;;;;;;;20.02;10.25;;;4.00;99.90;;;;;;4921265;29;20428;-78
2023/01/23 10:49:03;;;;;;;19.98;9.55;;;;;;;;;;4919946;29;20048;-78
2023/01/23 10:51:30;;;;;;;21.27;9.68;;;4.20;99.90;;;;;;4921256;29;20083;-78
2023/01/23 10:54:19;;;;;;;22.73;10.20;;;4.10;99.90;;;;;;4905238;29;20044;-78
2023/01/23 10:56:57;;;;;;;17.20;8.60;;;4.00;99.90;;;;;;4886349;29;20040;-78
2023/01/23 10:59:36;;;;;;;15.20;8.55;;;4.10;99.90;;;;;;4890061;29;20380;-78
2023/01/23 11:02:17;;;;;;;15.45;8.40;;;;;;;;;;4921243;29;20454;-78
2023/01/23 11:04:44;;;;;;;21.67;9.63;;;;;;;;;;4925276;29;20407;-78
2023/01/23 11:07:35;;;;;;;16.52;7.60;;;4.50;99.90;;;;;;4901334;29;20175;-77
2023/01/23 11:10:07;;;;;;;13.35;6.78;;;;;;;;;;4898050;29;20209;-77
2023/01/23 11:12:35;;;;;;;21.02;9.13;;;;;;;;;;4935920;29;20138;-77
2023/01/23 11:15:21;;;;;;;13.52;7.70;;;4.40;99.90;;;;;;4916910;29;20043;-78
2023/01/23 11:17:47;;;;;;;11.55;6.15;;;4.30;99.90;;;;;;4905613;29;20047;-78
2023/01/23 11:20:29;;;;;;;12.35;6.28;;;4.50;99.90;;;;;;4888642;29;20396;-78
2023/01/23 11:23:03;;;;;;;12.85;6.70;;;;;;;;;;4901389;29;20044;-78
2023/01/23 11:25:43;;;;;;;9.85;5.72;;;;;;;;;;4912453;29;20511;-77
2023/01/23 11:28:19;;;;;;;7.30;4.93;;;;;;;;;;4920403;29;20460;-78
2023/01/23 11:30:57;;;;;;;7.22;4.72;;;;;;;;;;4911503;29;20043;-77
2023/01/23 11:33:26;;;;;;;8.60;4.45;;;;;;;;;;4915436;29;20061;-78
2023/01/23 11:36:06;;;;;;;7.57;3.67;;;;;;;;;;4919642;29;20074;-78
2023/01/23 11:38:55;;;;;;;6.03;4.03;;;4.50;99.90;;;;;;4924942;29;20047;-78
2023/01/23 11:41:32;;;;;;;6.25;4.20;;;4.50;99.90;;;;;;4917397;29;20044;-78
2023/01/23 11:43:59;;;;;;;6.00;4.15;;;;;;;;;;4919767;29;20059;-77
2023/01/23 11:46:28;;;;;;;10.20;4.75;;;;;;;;;;4919563;29;20051;-78
2023/01/23 11:49:29;;;;;;;7.25;4.78;;;4.50;99.90;;;;;;4919487;29;20039;-78
2023/01/23 11:51:58;;;;;;;7.10;4.10;;;;;;;;;;4919047;29;20400;-77
2023/01/23 11:54:34;;;;;;;8.18;5.20;;;;;;;;;;4917478;29;20044;-77
2023/01/23 11:57:27;;;;;;;8.00;4.75;;;4.40;99.90;;;;;;4919716;29;20084;-75
2023/01/23 12:00:06;;;;;;;9.57;5.28;;;4.30;99.90;;;;;;4905221;29;20179;-75
2023/01/23 12:02:46;;;;;;;7.35;4.57;;;;;;;;;;4902785;29;21371;-77
2023/01/23 12:05:28;;;;;;;8.55;5.10;;;;;;;;;;4913401;29;20040;-76
2023/01/23 12:07:57;;;;;;;7.60;5.30;;;;;;;;;;4907458;29;20564;-77
2023/01/23 12:10:41;;;;;;;7.97;5.45;;;4.50;99.90;;;;;;4921744;29;20086;-78
2023/01/23 12:13:15;;;;;;;7.60;4.93;;;;;;;;;;4903219;29;20044;-77
2023/01/23 12:15:41;;;;;;;8.68;5.13;;;;;;;;;;4917835;29;20071;-78
2023/01/23 12:18:07;;;;;;;9.30;5.47;;;;;;;;;;4918986;29;20094;-78
2023/01/23 12:20:42;;;;;;;6.75;4.50;;;;;;;;;;4918756;29;20040;-78
2023/01/23 12:23:20;;;;;;;13.75;4.85;;;;;;;;;;4905126;29;20046;-77
2023/01/23 12:26:09;;;;;;;10.60;5.68;;;4.60;99.90;;;;;;4918568;29;20071;-77
2023/01/23 12:29:12;;;;;;;13.90;6.18;;;;;;;;;;4934185;29;20519;-76
2023/01/23 12:32:06;;;;;;;13.93;6.30;;;;;;;;;;4861902;29;20496;-77
2023/01/23 12:34:43;;;;;;;8.65;5.55;;;;;;;;;;4917738;29;20047;-78
2023/01/23 12:37:12;;;;;;;9.32;5.70;;;;;;;;;;4912773;29;20093;-77
2023/01/23 12:39:57;;;;;;;9.20;5.13;;;;;;;;;;4887646;29;20044;-78
2023/01/23 12:42:44;;;;;;;9.93;6.13;;;;;;;;;;4909928;29;20040;-78
2023/01/23 12:45:10;;;;;;;9.55;7.00;;;;;;;;;;4881060;29;20048;-78
2023/01/23 12:47:51;;;;;;;12.25;6.82;;;4.60;99.90;;;;;;4918452;29;20130;-77
2023/01/23 12:50:22;;;;;;;14.55;7.35;;;4.50;99.90;;;;;;4946977;29;20492;-78
2023/01/23 12:52:51;;;;;;;10.60;7.53;;;;;;;;;;4917455;29;20531;-72
2023/01/23 12:55:20;;;;;;;10.07;7.03;;;;;;;;;;4911985;29;20040;-72
2023/01/23 12:57:53;;;;;;;13.52;8.05;;;4.30;99.90;;;;;;4915958;29;20522;-72
2023/01/23 13:00:28;;;;;;;12.93;7.40;;;;;;;;;;4917479;29;20051;-72
2023/01/23 13:03:07;;;;;;;10.85;7.72;;;;;;;;;;4918556;29;20051;-72
2023/01/23 13:05:46;;;;;;;9.85;7.53;;;4.50;99.90;;;;;;4899992;29;20036;-73
2023/01/23 13:08:22;;;;;;;9.45;7.40;;;;;;;;;;4913285;29;20079;-72
2023/01/23 13:13:33;;;;;;;10.95;6.85;;;4.50;99.90;;;;;;4917451;29;20103;-72
2023/01/23 13:16:11;;;;;;;10.35;7.82;;;4.40;99.90;;;;;;4907455;29;20044;-72
2023/01/23 13:22:08;;;;;;;14.38;7.78;;;;;;;;;;4908204;29;20126;-72
2023/01/23 13:27:32;;;;;;;13.07;8.00;;;;;;;;;;4908744;29;20050;-72
2023/01/23 13:29:59;;;;;;;12.90;8.60;;;;;;;;;;4895673;29;20480;-72
2023/01/23 13:32:28;;;;;;;15.80;8.90;;;;;;;;;;4893297;29;20088;-72
2023/01/23 13:34:54;;;;;;;14.70;9.50;;;;;;;;;;4894056;29;20044;-72
2023/01/23 13:37:39;;;;;;;12.13;9.02;;;;;;;;;;4887185;29;20044;-72
2023/01/23 13:40:11;;;;;;;13.35;8.88;;;;;;;;;;4895061;29;20044;-72
2023/01/23 13:42:37;;;;;;;14.13;9.40;;;;;;;;;;4907693;29;20036;-72
2023/01/23 13:45:15;;;;;;;17.13;9.65;;;;;;;;;;4897090;29;20050;-72
2023/01/23 13:50:51;;;;;;;15.82;10.18;;;4.60;99.90;;;;;;4904004;29;20139;-78
2023/01/23 13:58:49;;;;;;;19.45;10.45;;;;;;;;;;4902847;29;20063;-78
2023/01/23 14:06:56;;;;;;;17.35;10.45;;;;;;;;;;4903714;29;20084;-78
2023/01/23 14:09:28;;;;;;;18.38;11.10;;;4.50;99.90;;;;;;4886247;29;20126;-78
2023/01/23 14:12:01;;;;;;;15.60;10.23;;;;;;;;;;4918695;29;20048;-79
2023/01/23 14:17:21;;;;;;;19.43;11.20;;;4.40;99.90;;;;;;4921028;29;20051;-78
2023/01/23 14:20:00;;;;;;;20.23;11.02;;;4.40;99.90;;;;;;4901777;29;20299;-79
2023/01/23 14:22:30;;;;;;;17.23;11.05;;;;;;;;;;4933451;29;20044;-79
2023/01/23 14:24:56;;;;;;;19.40;10.63;;;;;;;;;;4902348;29;20043;-79
2023/01/23 14:27:36;;;;;;;19.85;11.57;;;4.40;99.90;;;;;;4905519;29;20047;-78
2023/01/23 14:30:12;;;;;;;20.23;11.07;;;;;;;;;;4933694;29;20067;-78
2023/01/23 14:32:38;;;;;;;19.95;11.20;;;;;;;;;;4907850;29;20379;-79
2023/01/23 14:35:24;;;;;;;24.90;11.23;;;4.40;99.90;;;;;;4890278;29;20048;-78
2023/01/23 14:37:50;;;;;;;19.70;10.82;;;;;;;;;;4902033;29;20058;-78
2023/01/23 14:40:17;;;;;;;18.73;10.32;;;;;;;;;;4902671;29;20122;-78
2023/01/23 14:42:43;;;;;;;19.15;11.02;;;;;;;;;;4921379;29;20047;-78
2023/01/23 14:45:13;;;;;;;23.40;11.82;;;4.10;99.90;;;;;;4903760;29;20083;-78
2023/01/23 14:47:44;;;;;;;29.45;12.93;;;;;;;;;;4904870;29;20115;-76
2023/01/23 14:50:15;;;;;;;28.67;13.40;;;;;;;;;;4917185;29;20075;-78
2023/01/23 14:52:41;;;;;;;28.67;13.13;;;;;;;;;;4921360;29;20388;-78
2023/01/23 14:55:34;;;;;;;23.05;12.93;;;;;;;;;;4900354;29;20044;-78
2023/01/23 14:58:01;;;;;;;22.55;12.63;;;;;;;;;;4883863;29;20477;-78